createdAt,value
2022-09-07T00:00:56.689Z,94.40
2022-09-07T00:03:25.571Z,94.30
2022-09-07T00:05:54.504Z,94.70
2022-09-07T00:08:27.265Z,94.40
2022-09-07T00:10:59.183Z,94.40
2022-09-07T00:13:30.410Z,94.50
2022-09-07T00:15:59.361Z,94.50
2022-09-07T00:18:27.889Z,94.50
2022-09-07T00:21:00.410Z,94.50
2022-09-07T00:23:32.126Z,94.40
2022-09-07T00:26:01.907Z,94.40
2022-09-07T00:28:30.706Z,94.30
2022-09-07T00:30:59.315Z,94.30
2022-09-07T00:33:28.251Z,94.30
2022-09-07T00:35:56.798Z,94.40
2022-09-07T00:38:25.320Z,94.40
2022-09-07T00:40:55.238Z,94.40
2022-09-07T00:46:17.043Z,94.30
2022-09-07T00:48:49.974Z,94.20
2022-09-07T00:51:23.123Z,94.20
2022-09-07T00:53:54.527Z,94.30
2022-09-07T00:56:27.855Z,94.30
2022-09-07T00:58:56.833Z,94.40
2022-09-07T01:01:25.568Z,94.50
2022-09-07T01:03:56.594Z,94.60
2022-09-07T01:06:29.133Z,94.80
2022-09-07T01:09:00.911Z,94.90
2022-09-07T01:11:34.053Z,95.00
2022-09-07T01:14:03.580Z,95.10
2022-09-07T01:16:43.039Z,95.10
2022-09-07T01:19:32.296Z,95.10
2022-09-07T01:22:16.599Z,95.10
2022-09-07T01:24:58.466Z,95.10
2022-09-07T01:28:06.546Z,95.20
2022-09-07T01:30:38.811Z,95.30
2022-09-07T01:33:20.999Z,95.50
2022-09-07T01:35:56.700Z,95.60
2022-09-07T01:38:35.831Z,95.70
2022-09-07T01:41:09.964Z,95.80
2022-09-07T01:43:47.028Z,96.20
2022-09-07T01:46:21.228Z,96.30
2022-09-07T01:48:53.348Z,96.00
2022-09-07T01:51:24.628Z,96.00
2022-09-07T01:53:58.782Z,96.00
2022-09-07T01:56:34.675Z,95.90
2022-09-07T01:59:07.181Z,96.00
2022-09-07T02:01:41.728Z,96.00
2022-09-07T02:04:13.035Z,96.00
2022-09-07T02:06:47.921Z,96.00
2022-09-07T02:09:24.511Z,95.90
2022-09-07T02:11:53.418Z,95.90
2022-09-07T02:14:27.751Z,95.80
2022-09-07T02:17:02.847Z,95.80
2022-09-07T02:19:36.399Z,95.80
2022-09-07T02:22:10.333Z,95.80
2022-09-07T02:24:43.035Z,95.70
2022-09-07T02:27:16.162Z,95.80
2022-09-07T02:29:46.485Z,95.80
2022-09-07T02:32:15.256Z,95.80
2022-09-07T02:34:44.067Z,95.80
2022-09-07T02:37:15.120Z,95.90
2022-09-07T02:39:43.826Z,95.90
2022-09-07T02:42:12.535Z,95.90
2022-09-07T02:44:43.397Z,96.00
2022-09-07T02:47:24.247Z,96.00
2022-09-07T02:51:18.118Z,96.10
2022-09-07T02:54:02.543Z,96.20
2022-09-07T02:56:52.429Z,96.10
2022-09-07T02:59:35.041Z,96.00
2022-09-07T03:02:08.857Z,96.00
2022-09-07T03:04:46.276Z,96.00
2022-09-07T03:07:17.870Z,96.00
2022-09-07T03:09:49.855Z,96.10
2022-09-07T03:12:18.687Z,96.10
2022-09-07T03:14:47.479Z,96.10
2022-09-07T03:17:16.651Z,96.10
2022-09-07T03:19:46.805Z,96.10
2022-09-07T03:22:15.207Z,96.10
2022-09-07T03:24:43.580Z,96.10
2022-09-07T03:27:12.587Z,96.10
2022-09-07T03:29:42.150Z,96.10
2022-09-07T03:32:10.693Z,96.10
2022-09-07T03:34:39.084Z,96.20
2022-09-07T03:37:08.957Z,96.20
2022-09-07T03:39:37.466Z,96.20
2022-09-07T03:42:06.202Z,96.20
2022-09-07T03:44:34.588Z,96.20
2022-09-07T03:47:03.010Z,96.20
2022-09-07T03:49:31.397Z,96.10
2022-09-07T03:51:59.816Z,96.10
2022-09-07T03:54:29.655Z,96.00
2022-09-07T03:56:58.027Z,96.00
2022-09-07T03:59:26.593Z,95.90
2022-09-07T04:01:55.182Z,95.90
2022-09-07T04:04:23.573Z,95.80
2022-09-07T04:06:52.154Z,95.90
2022-09-07T04:09:20.534Z,95.90
2022-09-07T04:11:50.350Z,95.90
2022-09-07T04:14:18.791Z,96.00
2022-09-07T04:16:47.459Z,96.10
2022-09-07T04:19:15.901Z,96.20
2022-09-07T04:21:44.406Z,96.30
2022-09-07T04:24:12.792Z,96.40
2022-09-07T04:26:43.331Z,96.40
2022-09-07T04:29:13.908Z,96.40
2022-09-07T04:31:42.302Z,96.40
2022-09-07T04:34:12.930Z,96.40
2022-09-07T04:36:41.405Z,96.50
2022-09-07T04:39:11.334Z,96.60
2022-09-07T04:41:39.883Z,96.60
2022-09-07T04:44:08.284Z,96.60
2022-09-07T04:46:38.858Z,96.60
2022-09-07T04:49:09.903Z,96.80
2022-09-07T04:51:40.372Z,96.80
2022-09-07T04:54:08.785Z,97.00
2022-09-07T04:56:37.363Z,97.10
2022-09-07T04:59:05.847Z,97.00
2022-09-07T05:01:34.620Z,97.00
2022-09-07T05:04:05.397Z,96.90
2022-09-07T05:06:33.926Z,96.90
2022-09-07T05:09:02.850Z,97.00
2022-09-07T05:11:31.279Z,97.10
2022-09-07T05:14:00.365Z,97.20
2022-09-07T05:16:29.438Z,97.30
2022-09-07T05:19:00.092Z,97.40
2022-09-07T05:21:31.517Z,97.60
2022-09-07T05:24:00.951Z,97.70
2022-09-07T05:26:31.809Z,97.80
2022-09-07T05:31:51.078Z,97.80
2022-09-07T05:34:35.014Z,97.90
2022-09-07T05:37:04.906Z,98.00
2022-09-07T05:39:33.599Z,98.10
2022-09-07T05:42:02.143Z,98.30
2022-09-07T05:44:47.395Z,98.40
2022-09-07T05:47:16.097Z,98.60
2022-09-07T05:49:44.633Z,98.80
2022-09-07T05:52:14.669Z,98.90
2022-09-07T05:54:43.072Z,99.00
2022-09-07T05:57:13.695Z,99.00
2022-09-07T05:59:42.072Z,99.10
2022-09-07T06:02:14.942Z,99.10
2022-09-07T06:04:43.620Z,99.20
2022-09-07T06:07:23.050Z,99.20
2022-09-07T06:12:43.363Z,99.30
2022-09-07T06:15:14.242Z,99.40
2022-09-07T06:17:42.805Z,99.60
2022-09-07T06:20:12.163Z,99.70
2022-09-07T06:22:42.336Z,99.90
2022-09-07T06:25:10.935Z,99.90
2022-09-07T06:27:39.298Z,99.90
2022-09-07T06:31:06.189Z,99.90
2022-09-07T06:34:20.995Z,99.90
2022-09-07T06:40:41.866Z,99.90
2022-09-07T06:43:48.830Z,99.90
2022-09-07T06:49:34.993Z,99.90
2022-09-07T06:52:03.834Z,99.90
2022-09-07T06:57:22.037Z,99.90
2022-09-07T06:59:50.395Z,99.90
2022-09-07T07:02:18.798Z,99.90
2022-09-07T07:04:47.927Z,99.90
2022-09-07T07:07:16.536Z,99.90
2022-09-07T07:09:44.938Z,99.90
2022-09-07T07:12:13.475Z,99.90
2022-09-07T07:14:45.117Z,99.90
2022-09-07T07:17:13.795Z,99.90
2022-09-07T07:19:42.264Z,99.90
2022-09-07T07:24:59.125Z,99.90
2022-09-07T07:27:28.217Z,99.90
2022-09-07T07:29:58.012Z,99.90
2022-09-07T07:32:27.977Z,99.90
2022-09-07T07:34:56.267Z,99.90
2022-09-07T07:44:21.854Z,99.90
2022-09-07T07:47:35.434Z,99.90
2022-09-07T07:53:57.835Z,99.90
2022-09-07T07:57:18.881Z,99.90
2022-09-07T08:00:23.571Z,99.90
2022-09-07T08:03:09.998Z,99.90
2022-09-07T08:05:52.721Z,99.90
2022-09-07T08:11:37.375Z,99.90
2022-09-07T08:14:06.785Z,99.90
2022-09-07T08:16:36.358Z,99.90
2022-09-07T08:19:05.760Z,99.90
2022-09-07T08:21:35.497Z,99.90
2022-09-07T08:24:04.214Z,99.90
2022-09-07T08:26:32.889Z,99.90
2022-09-07T08:29:01.510Z,99.90
2022-09-07T08:31:30.174Z,99.90
2022-09-07T08:33:58.447Z,99.90
2022-09-07T08:36:26.773Z,99.90
2022-09-07T08:38:56.536Z,99.90
2022-09-07T08:41:49.733Z,99.90
2022-09-07T08:44:23.203Z,99.90
2022-09-07T08:46:56.150Z,99.90
2022-09-07T08:49:31.483Z,99.90
2022-09-07T08:52:03.677Z,99.90
2022-09-07T08:54:34.027Z,99.90
2022-09-07T08:57:20.847Z,99.90
2022-09-07T08:59:55.344Z,99.90
2022-09-07T09:02:28.208Z,99.90
2022-09-07T09:07:55.783Z,99.90
2022-09-07T09:10:37.230Z,99.90
2022-09-07T09:13:16.353Z,99.90
2022-09-07T09:15:54.455Z,99.90
2022-09-07T09:18:35.795Z,99.90
2022-09-07T09:21:08.014Z,99.90
2022-09-07T09:23:41.423Z,99.90
2022-09-07T09:26:15.998Z,99.90
2022-09-07T09:28:44.338Z,99.90
2022-09-07T09:31:19.430Z,99.90
2022-09-07T09:34:09.429Z,99.90
2022-09-07T09:36:43.102Z,99.90
2022-09-07T09:39:29.134Z,99.90
2022-09-07T09:42:02.487Z,99.90
2022-09-07T09:44:38.289Z,99.90
2022-09-07T09:49:57.966Z,99.90
2022-09-07T09:52:29.746Z,99.90
2022-09-07T09:55:23.249Z,99.90
2022-09-07T10:06:21.434Z,99.90
2022-09-07T10:08:59.031Z,99.90
2022-09-07T10:14:37.468Z,99.90
2022-09-07T10:17:20.048Z,99.90
2022-09-07T10:19:49.795Z,99.90
2022-09-07T10:22:31.261Z,99.90
2022-09-07T10:25:00.963Z,99.90
2022-09-07T10:27:35.731Z,99.90
2022-09-07T10:30:14.705Z,99.90
2022-09-07T10:32:56.277Z,99.90
2022-09-07T10:35:28.562Z,99.90
2022-09-07T10:38:15.498Z,99.90
2022-09-07T10:40:47.878Z,99.90
2022-09-07T10:43:35.077Z,99.90
2022-09-07T10:49:24.979Z,99.90
2022-09-07T10:52:05.465Z,99.90
2022-09-07T10:54:42.123Z,99.90
2022-09-07T10:57:39.322Z,99.90
2022-09-07T11:00:12.554Z,99.90
2022-09-07T11:03:26.649Z,99.90
2022-09-07T11:06:15.512Z,99.80
2022-09-07T11:09:18.106Z,99.70
2022-09-07T11:12:06.415Z,99.50
2022-09-07T11:14:42.350Z,99.60
2022-09-07T11:17:16.864Z,99.80
2022-09-07T11:19:53.810Z,99.60
2022-09-07T11:22:34.899Z,99.00
2022-09-07T11:25:33.070Z,98.50
2022-09-07T11:28:08.933Z,97.90
2022-09-07T11:30:42.010Z,97.20
2022-09-07T11:33:16.697Z,96.20
2022-09-07T11:35:53.058Z,95.50
2022-09-07T11:38:26.903Z,95.30
2022-09-07T11:41:22.292Z,95.40
2022-09-07T11:43:59.190Z,94.60
2022-09-07T11:46:33.951Z,94.20
2022-09-07T11:49:04.597Z,94.00
2022-09-07T11:51:41.565Z,93.50
2022-09-07T11:54:32.371Z,93.30
2022-09-07T11:57:08.578Z,93.00
2022-09-07T11:59:53.617Z,92.80
2022-09-07T12:03:00.366Z,92.20
2022-09-07T12:05:47.717Z,91.50
2022-09-07T12:08:35.674Z,90.50
2022-09-07T12:11:23.227Z,90.30
2022-09-07T12:14:05.854Z,90.30
2022-09-07T12:16:52.246Z,89.90
2022-09-07T12:19:22.883Z,87.10
2022-09-07T12:21:57.793Z,85.60
2022-09-07T12:24:52.766Z,85.50
2022-09-07T12:27:41.141Z,84.80
2022-09-07T12:30:51.788Z,83.70
2022-09-07T12:33:29.631Z,83.80
2022-09-07T12:36:00.843Z,83.00
2022-09-07T12:39:21.060Z,82.60
2022-09-07T12:44:44.401Z,79.40
2022-09-07T12:47:31.428Z,78.50
2022-09-07T12:50:26.617Z,78.60
2022-09-07T12:53:24.131Z,77.00
2022-09-07T12:56:16.025Z,76.30
2022-09-07T12:59:19.540Z,73.60
2022-09-07T13:01:58.889Z,72.30
2022-09-07T13:04:46.413Z,71.90
2022-09-07T13:08:08.829Z,71.70
2022-09-07T13:10:39.275Z,69.50
2022-09-07T13:13:17.686Z,69.80
2022-09-07T13:15:49.920Z,70.00
2022-09-07T13:18:44.439Z,69.30
2022-09-07T13:21:42.706Z,68.60
2022-09-07T13:24:50.552Z,67.80
2022-09-07T13:27:43.392Z,66.90
2022-09-07T13:30:37.898Z,67.30
2022-09-07T13:33:46.146Z,67.90
2022-09-07T13:36:39.089Z,67.50
2022-09-07T13:39:16.703Z,67.70
2022-09-07T13:41:50.089Z,67.60
2022-09-07T13:44:26.424Z,67.70
2022-09-07T13:47:21.068Z,68.30
2022-09-07T13:50:03.203Z,69.10
2022-09-07T13:52:47.317Z,68.60
2022-09-07T13:55:26.778Z,68.00
2022-09-07T13:58:12.848Z,66.80
2022-09-07T14:00:55.542Z,65.80
2022-09-07T14:03:27.019Z,66.50
2022-09-07T14:06:27.856Z,67.00
2022-09-07T14:08:57.752Z,66.80
2022-09-07T14:11:28.311Z,66.30
2022-09-07T14:14:16.477Z,66.20
2022-09-07T14:16:47.806Z,65.30
2022-09-07T14:19:24.073Z,64.70
2022-09-07T14:21:58.589Z,64.90
2022-09-07T14:24:33.695Z,64.50
2022-09-07T14:27:02.741Z,64.30
2022-09-07T14:29:33.026Z,64.50
2022-09-07T14:32:02.998Z,64.30
2022-09-07T14:34:37.540Z,64.50
2022-09-07T14:37:10.036Z,64.00
2022-09-07T14:39:41.779Z,62.70
2022-09-07T14:42:13.295Z,62.20
2022-09-07T14:44:45.161Z,62.30
2022-09-07T14:47:29.293Z,62.60
2022-09-07T14:50:05.881Z,62.90
2022-09-07T14:53:33.099Z,62.70
2022-09-07T14:55:33.233Z,62.70
2022-09-07T14:58:26.174Z,63.20
2022-09-07T15:04:01.357Z,63.40
2022-09-07T15:09:37.412Z,65.80
2022-09-07T15:12:32.731Z,66.90
2022-09-07T15:15:13.070Z,67.80
2022-09-07T15:17:43.245Z,68.60
2022-09-07T15:20:36.322Z,69.10
2022-09-07T15:23:06.617Z,69.30
2022-09-07T15:25:37.219Z,69.30
2022-09-07T15:28:06.088Z,69.70
2022-09-07T15:30:34.854Z,69.70
2022-09-07T15:33:03.621Z,70.10
2022-09-07T15:35:32.012Z,70.20
2022-09-07T15:38:01.464Z,70.70
2022-09-07T15:40:51.294Z,70.90
2022-09-07T15:43:29.424Z,71.10
2022-09-07T15:45:58.304Z,71.80
2022-09-07T15:48:27.238Z,73.20
2022-09-07T15:51:03.749Z,74.00
2022-09-07T15:56:24.227Z,77.10
2022-09-07T15:58:58.032Z,77.90
2022-09-07T16:04:16.257Z,79.40
2022-09-07T16:06:47.868Z,79.90
2022-09-07T16:09:17.480Z,80.40
2022-09-07T16:11:49.886Z,80.70
2022-09-07T16:14:20.457Z,80.90
2022-09-07T16:19:41.037Z,81.90
2022-09-07T16:22:10.201Z,82.40
2022-09-07T16:24:38.630Z,83.00
2022-09-07T16:27:07.121Z,83.40
2022-09-07T16:29:37.906Z,83.40
2022-09-07T16:34:55.961Z,83.70
2022-09-07T16:37:24.316Z,84.20
2022-09-07T16:39:53.350Z,84.30
2022-09-07T16:42:22.679Z,85.60
2022-09-07T16:44:52.981Z,84.90
2022-09-07T16:47:21.468Z,86.10
2022-09-07T16:49:50.653Z,85.80
2022-09-07T16:52:21.553Z,86.40
2022-09-07T16:54:51.193Z,86.70
2022-09-07T16:57:19.878Z,87.00
2022-09-07T16:59:48.602Z,87.30
2022-09-07T17:02:19.662Z,87.80
2022-09-07T17:04:48.927Z,88.40
2022-09-07T17:07:17.451Z,88.70
2022-09-07T17:09:46.305Z,89.10
2022-09-07T17:12:14.664Z,89.30
2022-09-07T17:14:43.071Z,89.60
2022-09-07T17:17:11.436Z,90.00
2022-09-07T17:19:41.564Z,90.10
2022-09-07T17:22:10.182Z,90.20
2022-09-07T17:24:38.519Z,90.30
2022-09-07T17:27:07.031Z,90.50
2022-09-07T17:29:37.674Z,90.50
2022-09-07T17:34:56.708Z,90.80
2022-09-07T17:37:25.703Z,91.00
2022-09-07T17:39:54.554Z,91.10
2022-09-07T17:42:24.610Z,91.40
2022-09-07T17:44:53.319Z,91.50
2022-09-07T17:47:21.686Z,91.60
2022-09-07T17:49:50.186Z,91.70
2022-09-07T17:52:20.300Z,91.70
2022-09-07T17:54:49.719Z,91.90
2022-09-07T17:57:18.485Z,92.00
2022-09-07T18:02:35.993Z,92.10
2022-09-07T18:05:05.271Z,92.20
2022-09-07T18:07:35.628Z,92.40
2022-09-07T18:10:04.195Z,92.50
2022-09-07T18:12:32.900Z,92.70
2022-09-07T18:15:01.719Z,92.90
2022-09-07T18:17:30.233Z,93.00
2022-09-07T18:19:59.070Z,93.10
2022-09-07T18:22:27.338Z,93.10
2022-09-07T18:24:57.549Z,93.20
2022-09-07T18:27:26.789Z,93.60
2022-09-07T18:29:55.738Z,93.30
2022-09-07T18:32:24.004Z,93.40
2022-09-07T18:34:52.315Z,93.50
2022-09-07T18:37:20.665Z,93.60
2022-09-07T18:39:49.455Z,93.70
2022-09-07T18:42:19.378Z,93.80
2022-09-07T18:47:37.091Z,93.90
2022-09-07T18:50:06.357Z,94.00
2022-09-07T18:55:25.072Z,94.20
2022-09-07T18:57:55.746Z,94.20
2022-09-07T19:00:27.731Z,94.30
2022-09-07T19:02:56.238Z,94.40
2022-09-07T19:08:13.804Z,94.50
2022-09-07T19:10:42.244Z,94.60
2022-09-07T19:13:12.110Z,94.70
2022-09-07T19:15:40.678Z,94.80
2022-09-07T19:18:09.414Z,94.80
2022-09-07T19:20:37.952Z,94.90
2022-09-07T19:23:06.913Z,95.00
2022-09-07T19:25:35.499Z,95.10
2022-09-07T19:28:04.132Z,95.10
2022-09-07T19:30:35.821Z,95.20
2022-09-07T19:33:04.762Z,95.20
2022-09-07T19:35:37.473Z,95.40
2022-09-07T19:38:06.119Z,95.40
2022-09-07T19:40:34.818Z,95.40
2022-09-07T19:43:03.425Z,95.40
2022-09-07T19:45:33.406Z,95.80
2022-09-07T19:48:02.038Z,95.60
2022-09-07T19:50:30.862Z,95.70
2022-09-07T19:52:59.508Z,95.80
2022-09-07T19:55:28.474Z,95.90
2022-09-07T19:57:57.134Z,95.90
2022-09-07T20:00:26.348Z,96.00
2022-09-07T20:02:56.779Z,96.10
2022-09-07T20:05:29.331Z,96.20
2022-09-07T20:07:58.548Z,96.20
2022-09-07T20:10:27.169Z,96.30
2022-09-07T20:12:56.023Z,96.40
2022-09-07T20:15:25.053Z,96.60
2022-09-07T20:17:55.575Z,96.60
2022-09-07T20:20:24.979Z,96.60
2022-09-07T20:22:53.541Z,96.80
2022-09-07T20:25:22.516Z,97.30
2022-09-07T20:27:51.236Z,97.00
2022-09-07T20:30:20.099Z,97.00
2022-09-07T20:32:49.036Z,97.00
2022-09-07T20:35:18.824Z,97.10
2022-09-07T20:37:47.877Z,97.20
2022-09-07T20:40:16.594Z,97.20
2022-09-07T20:42:45.730Z,97.30
2022-09-07T20:45:14.290Z,97.40
2022-09-07T20:47:44.714Z,97.40
2022-09-07T20:50:13.561Z,97.60
2022-09-07T20:52:43.472Z,97.60
2022-09-07T20:55:11.864Z,97.70
2022-09-07T20:57:40.331Z,97.70
2022-09-07T21:00:09.715Z,97.70
2022-09-07T21:02:38.152Z,97.80
2022-09-07T21:05:07.909Z,97.80
2022-09-07T21:07:38.807Z,97.90
2022-09-07T21:10:10.140Z,97.90
2022-09-07T21:12:38.809Z,98.00
2022-09-07T21:15:09.068Z,98.00
2022-09-07T21:17:38.814Z,98.00
2022-09-07T21:20:08.166Z,98.10
2022-09-07T21:22:36.656Z,98.10
2022-09-07T21:25:05.676Z,98.10
2022-09-07T21:27:38.996Z,98.10
2022-09-07T21:30:08.566Z,98.10
2022-09-07T21:32:37.000Z,98.30
2022-09-07T21:35:05.827Z,98.50
2022-09-07T21:37:34.473Z,98.60
2022-09-07T21:40:03.740Z,98.60
2022-09-07T21:42:32.632Z,98.70
2022-09-07T21:45:02.601Z,98.80
2022-09-07T21:47:31.082Z,98.80
2022-09-07T21:49:59.634Z,98.80
2022-09-07T21:52:28.070Z,98.90
2022-09-07T21:54:56.679Z,98.80
2022-09-07T21:57:25.201Z,98.90
2022-09-07T21:59:53.703Z,99.00
2022-09-07T22:02:23.894Z,99.10
2022-09-07T22:04:52.461Z,99.30
2022-09-07T22:07:20.999Z,99.30
2022-09-07T22:09:49.247Z,99.60
2022-09-07T22:12:17.505Z,99.70
2022-09-07T22:14:46.317Z,99.80
2022-09-07T22:17:14.652Z,99.90
2022-09-07T22:19:45.158Z,99.90
2022-09-07T22:22:13.556Z,99.90
2022-09-07T22:24:41.935Z,99.90
2022-09-07T22:27:10.265Z,99.90
2022-09-07T22:29:38.526Z,99.90
2022-09-07T22:32:06.871Z,99.90
2022-09-07T22:34:35.158Z,99.90
2022-09-07T22:37:04.867Z,99.90
2022-09-07T22:39:33.196Z,99.90
2022-09-07T22:42:01.547Z,99.90
2022-09-07T22:44:30.134Z,99.90
2022-09-07T22:46:58.493Z,99.90
2022-09-07T22:49:26.968Z,99.90
2022-09-07T22:51:55.255Z,99.90
2022-09-07T22:54:24.993Z,99.90
2022-09-07T22:56:53.304Z,99.90
2022-09-07T22:59:21.706Z,99.90
2022-09-07T23:01:50.057Z,99.90
2022-09-07T23:04:18.416Z,99.90
2022-09-07T23:06:46.818Z,99.90
2022-09-07T23:09:17.365Z,99.90
2022-09-07T23:11:47.911Z,99.90
2022-09-07T23:14:18.127Z,99.90
2022-09-07T23:16:46.755Z,99.90
2022-09-07T23:19:17.184Z,99.90
2022-09-07T23:21:45.978Z,99.90
2022-09-07T23:24:16.289Z,99.90
2022-09-07T23:26:44.788Z,99.90
2022-09-07T23:29:15.659Z,99.90
2022-09-07T23:31:46.251Z,99.90
2022-09-07T23:34:14.611Z,99.90
2022-09-07T23:36:42.951Z,99.90
2022-09-07T23:39:11.293Z,99.90
2022-09-07T23:41:39.571Z,99.90
2022-09-07T23:44:08.339Z,99.90
2022-09-07T23:46:38.232Z,99.90
2022-09-07T23:49:06.814Z,99.90
2022-09-07T23:51:35.183Z,99.90
2022-09-07T23:54:03.461Z,99.90
2022-09-07T23:56:32.747Z,99.90
2022-09-07T23:59:01.212Z,99.90
